首页
METAR-TAF:

METAR-TAF

机场 :

Boscombe Down, 英格兰

纬度: 51-10N, 经度: 001-45W, 海拔: 124米

当前天气观测

该预报发布于54分钟前的02:50 UTC
风速4节,风向
温度 6°C
湿度 100%
气压 1007 hPa
能见度10公里或以上

METAR: EGDM 240250Z AUTO 18004KT 9999 NCD 06/06 Q1007

时间: 04:44 (03:44 UTC)

预报

该预报发布于13小时和58分钟前的13:46 UTC
预报有效从23日的 13点(UTC)到 23日的 17点(UTC)
风速13节,风向西转西南
能见度10公里或以上
多云层高于2000英尺
短暂存在
从 23日的 13点(UTC)到 23日的 17点(UTC)
能見度: 7000
多云层高于1000英尺
小雨
几率 30% :
短暂存在
从 23日的 13点(UTC)到 23日的 17点(UTC)
能見度: 4000
小雨, 毛毛雨

TAF: EGDM 231346Z 2313/2317 24013KT 9999 BKN020 TEMPO 2313/2317 7000 -RA BKN010 PROB30 TEMPO 2313/2317 4000 -RADZ

超过4000个机场的气象观测和天气预报(METAR&TAF报告)。

可查询的气象台以黄色和红色小点在地图上表示。

将鼠标移到小点上方,可查看气象台名称。

然后点击查看天气观测和预报。

如需切换地图:点击带黑十字的绿色按钮放大地图;点击带横线的绿色按钮缩小地图;或者点击绿色箭头查看邻近地区的地图。


METAR-TAF: